Ravena, New York
Current Conditions -  °F | °C
As of 10:51 AM on Thursday 29 Jan 2015 (Local Time) from KALB Reporting Station
Broken Clouds Broken Clouds  
Wind Chill: 13°   Ceiling: 26000
Heat Index: 13°   Visibility: 10mi
Dew Point:   Wind: 3mph
Humidity: 59%   Direction: 200°SSW
Pressure: 30.28"   Gusts: NA
Location:  42.47°N, 73.82°W
Report Text: KALB 291551Z 20003KT 10SM FEW160 BKN260 M11/M17 A3028 RMK AO2 SLP261 T11061172
Loading
Personal Weather Stations






























Interactive Weather Map New forecast layout! Learn more

10-Day Weather Forecast

Advertisements
Track Severe Weather on mobile